Time;durP1;ratioP1;P1;durP2;ratioP2;P2;SDS_P1;SDS_P2;PMS_P1;PMS_P2;Temp;Humidity;BMP_temperature;BMP_pressure;BME280_temperature;BME280_humidity;BME280_pressure;Samples;Min_cycle;Max_cycle;Signal;HPM_P1;HPM_P2
2023/01/31 00:01:06;;;;;;;17.63;7.40;;;;;;;3.41;65.86;98569.03;5096337;28;20643;-88
2023/01/31 00:03:32;;;;;;;20.53;7.37;;;;;;;3.44;65.69;98570.69;5096049;28;20165;-88
2023/01/31 00:05:58;;;;;;;23.90;8.60;;;;;;;3.49;66.04;98564.44;5095994;28;20172;-87
2023/01/31 00:08:23;;;;;;;17.77;8.23;;;;;;;3.46;65.47;98564.53;5095978;28;20183;-88
2023/01/31 00:10:48;;;;;;;22.50;8.27;;;;;;;3.53;65.75;98562.63;5096127;28;20194;-88
2023/01/31 00:13:14;;;;;;;23.43;8.40;;;;;;;3.55;65.50;98563.41;5094714;28;20658;-88
2023/01/31 00:15:39;;;;;;;21.33;8.87;;;;;;;3.59;65.01;98572.78;5095769;28;20172;-88
2023/01/31 00:18:05;;;;;;;19.97;9.03;;;;;;;3.60;65.37;98571.88;5094996;28;20180;-89
2023/01/31 00:20:30;;;;;;;22.27;8.67;;;;;;;3.54;65.36;98570.31;5095732;28;20252;-88
2023/01/31 00:22:57;;;;;;;15.87;6.93;;;;;;;3.52;65.41;98564.34;5095674;28;20199;-88
2023/01/31 00:25:22;;;;;;;13.90;7.17;;;;;;;3.42;65.74;98568.16;5111851;28;20222;-88
2023/01/31 00:27:47;;;;;;;23.00;8.33;;;;;;;3.38;66.25;98553.59;5095564;28;20172;-88
2023/01/31 00:30:13;;;;;;;21.93;7.70;;;;;;;3.47;66.21;98565.41;5094529;28;20634;-88
2023/01/31 00:32:38;;;;;;;13.53;5.90;;;;;;;3.46;65.86;98558.53;5095637;28;20263;-88
2023/01/31 00:35:04;;;;;;;18.97;7.03;;;;;;;3.48;65.91;98555.00;5094272;28;20188;-90
2023/01/31 00:37:30;;;;;;;15.37;7.30;;;;;;;3.54;65.45;98557.38;5095415;28;20263;-88
2023/01/31 00:39:55;;;;;;;19.27;8.67;;;;;;;3.61;65.35;98565.78;5095291;28;20184;-88
2023/01/31 00:42:21;;;;;;;23.03;8.33;;;;;;;3.55;65.72;98558.22;5095233;28;20213;-88
2023/01/31 00:44:46;;;;;;;19.30;8.43;;;;;;;3.51;65.55;98561.81;5095125;28;20165;-88
2023/01/31 00:47:11;;;;;;;22.13;9.33;;;;;;;3.52;66.03;98559.16;5111166;28;20183;-88
2023/01/31 00:49:37;;;;;;;19.27;8.77;;;;;;;3.57;65.69;98561.59;5095445;28;20182;-88
2023/01/31 00:52:02;;;;;;;22.20;8.80;;;;;;;3.48;65.43;98561.94;5095331;28;20169;-88
2023/01/31 00:54:28;;;;;;;20.40;8.47;;;;;;;3.45;65.62;98567.19;5095298;28;20200;-89
2023/01/31 00:56:53;;;;;;;18.10;7.80;;;;;;;3.52;65.49;98566.94;5094965;28;20172;-89
2023/01/31 00:59:19;;;;;;;17.37;7.00;;;;;;;3.44;66.17;98570.69;5094972;28;20180;-88
2023/01/31 01:01:44;;;;;;;19.30;8.57;;;;;;;3.61;65.55;98571.84;5094859;28;20613;-88
2023/01/31 01:04:10;;;;;;;22.50;8.73;;;;;;;3.60;65.69;98562.34;5094834;28;20164;-88
2023/01/31 01:06:38;;;;;;;16.40;9.10;;;;;;;3.58;65.82;98564.16;5095019;28;20164;-88
2023/01/31 01:09:04;;;;;;;20.43;8.43;;;;;;;3.57;66.19;98571.97;5094743;28;20206;-88
2023/01/31 01:11:31;;;;;;;16.80;7.97;;;;;;;3.56;66.31;98565.94;5111274;28;20184;-89
2023/01/31 01:13:58;;;;;;;25.33;10.30;;;;;;;3.52;66.25;98568.69;5094849;28;20287;-88
2023/01/31 01:16:27;;;;;;;24.57;9.73;;;;;;;3.51;66.35;98569.59;5094574;28;20650;-88
2023/01/31 01:18:55;;;;;;;16.03;7.07;;;;;;;3.63;66.20;98562.25;5094547;28;20172;-88
2023/01/31 01:21:23;;;;;;;18.00;7.20;;;;;;;3.65;65.85;98559.59;5094481;28;20582;-88
2023/01/31 01:23:49;;;;;;;15.87;7.97;;;;;;;3.66;65.45;98550.94;5094428;28;20249;-88
2023/01/31 01:26:17;;;;;;;22.17;8.97;;;;;;;3.55;65.84;98545.25;5094413;28;20169;-88
2023/01/31 01:28:43;;;;;;;20.83;8.37;;;;;;;3.54;66.17;98547.00;5110389;28;20241;-88
2023/01/31 01:31:11;;;;;;;22.73;9.33;;;;;;;3.54;66.04;98541.81;5094814;28;20260;-88
2023/01/31 01:33:37;;;;;;;22.70;9.57;;;;;;;3.54;65.97;98535.78;5093245;28;20283;-89
2023/01/31 01:36:04;;;;;;;18.60;8.80;;;;;;;3.56;66.29;98529.66;5094255;28;20200;-89
2023/01/31 01:38:32;;;;;;;24.07;9.67;;;;;;;3.60;65.79;98530.41;5094034;28;20249;-88
2023/01/31 01:40:57;;;;;;;25.43;10.13;;;;;;;3.58;65.62;98522.69;5094199;28;20172;-89
2023/01/31 01:43:47;;;;;;;24.30;8.53;;;;;;;3.56;65.57;98521.06;5094084;28;20179;-88
2023/01/31 01:46:34;;;;;;;21.33;8.93;;;;;;;3.48;65.70;98504.94;5092889;28;20240;-88
2023/01/31 01:49:19;;;;;;;27.57;9.97;;;;;;;3.58;65.76;98506.31;5094299;28;20161;-88
2023/01/31 01:51:47;;;;;;;20.97;9.07;;;;;;;3.50;65.82;98513.50;5094199;28;20623;-88
2023/01/31 01:54:17;;;;;;;23.47;9.03;;;;;;;3.54;65.65;98502.09;5093796;28;20200;-88
2023/01/31 01:56:48;;;;;;;30.23;11.33;;;;;;;3.43;66.23;98502.47;5094342;28;20705;-88
2023/01/31 01:59:24;;;;;;;25.67;9.87;;;;;;;3.44;67.08;98513.69;5093859;28;20171;-89
2023/01/31 02:01:50;;;;;;;23.63;7.83;;;;;;;3.52;66.64;98517.72;5093754;28;20236;-88
2023/01/31 02:04:22;;;;;;;19.63;8.80;;;;;;;3.55;66.48;98524.53;5093736;28;20173;-88
2023/01/31 02:06:47;;;;;;;24.73;8.50;;;;;;;3.49;66.88;98519.56;5093687;28;20565;-89
2023/01/31 02:09:29;;;;;;;22.90;8.73;;;;;;;3.48;67.01;98516.16;5093600;28;20251;-89
2023/01/31 02:11:54;;;;;;;23.73;9.73;;;;;;;3.56;67.03;98508.94;5093896;28;20183;-88
2023/01/31 02:14:20;;;;;;;24.07;9.53;;;;;;;3.55;66.92;98502.06;5093408;28;20192;-88
2023/01/31 02:16:45;;;;;;;22.53;8.83;;;;;;;3.46;67.20;98514.50;5093298;28;20195;-89
2023/01/31 02:19:25;;;;;;;21.30;8.33;;;;;;;3.58;67.57;98501.13;5093460;28;20177;-87
2023/01/31 02:22:32;;;;;;;19.67;8.47;;;;;;;3.54;67.63;98505.56;5093707;28;20168;-88
2023/01/31 02:25:03;;;;;;;18.37;8.63;;;;;;;3.60;67.53;98502.75;5043975;28;20263;-88
2023/01/31 02:27:58;;;;;;;27.03;9.07;;;;;;;3.68;67.38;98518.88;5093248;28;20183;-88
2023/01/31 02:30:29;;;;;;;20.73;8.40;;;;;;;3.65;67.39;98519.00;5093324;28;20191;-88
2023/01/31 02:33:04;;;;;;;26.23;10.33;;;;;;;3.68;68.14;98518.88;5093147;28;20231;-89
2023/01/31 02:36:13;;;;;;;20.43;9.33;;;;;;;3.77;67.89;98520.31;5093541;28;20610;-88
2023/01/31 02:39:01;;;;;;;24.63;9.03;;;;;;;3.80;67.39;98527.13;5093097;28;20180;-89
2023/01/31 02:41:26;;;;;;;26.43;10.60;;;;;;;3.80;67.33;98527.97;5093151;28;20627;-88
2023/01/31 02:47:17;;;;;;;27.83;11.93;;;;;;;3.87;67.10;98526.88;5093045;28;20229;-87
2023/01/31 02:50:10;;;;;;;19.70;8.37;;;;;;;3.90;66.86;98521.56;5093362;28;20171;-88
2023/01/31 02:52:41;;;;;;;27.13;11.17;;;;;;;3.92;66.77;98514.59;5093125;28;20164;-89
2023/01/31 02:58:01;;;;;;;19.03;9.57;;;;;;;3.99;66.35;98507.41;5092640;28;20534;-88
2023/01/31 03:00:31;;;;;;;25.37;9.70;;;;;;;4.04;66.82;98508.94;5092821;28;20256;-88
2023/01/31 03:02:56;;;;;;;23.50;9.23;;;;;;;4.06;66.45;98509.72;5093732;28;20149;-88
2023/01/31 03:05:22;;;;;;;26.80;9.63;;;;;;;4.06;66.61;98507.13;5092815;28;20523;-88
2023/01/31 03:07:57;;;;;;;22.03;9.30;;;;;;;3.87;66.66;98508.72;5091891;28;20233;-88
2023/01/31 03:10:31;;;;;;;22.83;8.70;;;;;;;3.87;67.30;98508.72;5093095;28;20157;-88
2023/01/31 03:13:19;;;;;;;19.67;8.93;;;;;;;3.93;67.01;98511.06;5091696;28;20703;-88
2023/01/31 03:18:51;;;;;;;27.10;9.53;;;;;;;4.04;66.80;98510.69;5093570;28;20182;-88
2023/01/31 03:21:23;;;;;;;20.90;9.17;;;;;;;4.11;66.75;98513.03;5093272;28;20691;-88
2023/01/31 03:23:52;;;;;;;18.53;9.07;;;;;;;4.20;66.63;98511.81;5092991;28;20219;-88
2023/01/31 03:26:19;;;;;;;19.97;8.57;;;;;;;4.26;66.54;98512.44;5108664;28;20176;-88
2023/01/31 03:28:47;;;;;;;20.37;8.30;;;;;;;4.38;66.25;98520.69;5092665;28;20177;-89
2023/01/31 03:31:31;;;;;;;21.37;7.47;;;;;;;4.35;66.45;98506.06;5092606;28;20176;-88
2023/01/31 03:34:04;;;;;;;21.87;8.33;;;;;;;4.47;66.02;98520.31;5092854;28;20191;-88
2023/01/31 03:36:54;;;;;;;20.47;8.90;;;;;;;4.52;65.82;98519.25;5108488;28;20157;-88
2023/01/31 03:39:54;;;;;;;30.83;11.80;;;;;;;4.43;65.80;98516.16;5092776;28;20240;-88
2023/01/31 03:42:49;;;;;;;25.80;12.27;;;;;;;4.53;65.90;98522.69;5088369;28;20344;-87
2023/01/31 03:45:24;;;;;;;29.53;10.77;;;;;;;4.50;65.97;98505.50;5088457;28;20263;-88
2023/01/31 03:47:53;;;;;;;24.87;11.53;;;;;;;4.51;66.04;98521.91;5092499;28;20172;-88
2023/01/31 03:50:27;;;;;;;26.77;10.83;;;;;;;4.50;66.40;98507.25;5091417;28;20185;-88
2023/01/31 03:52:59;;;;;;;26.67;10.70;;;;;;;4.58;66.23;98515.56;5092895;28;20164;-88
2023/01/31 03:55:38;;;;;;;22.57;9.60;;;;;;;4.44;66.76;98491.91;5092914;28;20634;-88
2023/01/31 03:58:07;;;;;;;27.50;10.57;;;;;;;4.57;65.93;98498.31;5091407;28;20172;-88
2023/01/31 04:00:36;;;;;;;26.73;10.67;;;;;;;4.31;67.00;98492.38;5092301;28;20161;-88
2023/01/31 04:03:21;;;;;;;23.90;10.83;;;;;;;4.23;67.23;98491.81;5091267;28;20664;-89
2023/01/31 04:05:48;;;;;;;23.87;10.73;;;;;;;4.37;66.99;98493.03;5090789;28;20185;-88
2023/01/31 04:08:14;;;;;;;22.97;8.40;;;;;;;4.46;66.79;98482.28;5092563;28;20622;-88
2023/01/31 04:10:40;;;;;;;24.30;9.47;;;;;;;4.43;66.68;98492.81;5094617;28;20257;-88
2023/01/31 04:13:05;;;;;;;24.30;9.93;;;;;;;4.34;67.02;98494.84;5095738;28;20669;-88
2023/01/31 04:15:31;;;;;;;33.90;13.23;;;;;;;4.27;66.90;98493.38;5096069;28;20173;-88
2023/01/31 04:17:56;;;;;;;25.70;10.97;;;;;;;4.25;67.12;98490.00;5095733;28;20201;-89
2023/01/31 04:20:22;;;;;;;30.07;11.30;;;;;;;3.97;68.14;98494.53;5095685;28;20177;-89
2023/01/31 04:22:47;;;;;;;30.70;13.00;;;;;;;3.81;69.26;98495.97;5095624;28;20261;-88
2023/01/31 04:25:12;;;;;;;31.27;11.40;;;;;;;3.79;69.17;98505.56;5095636;28;20258;-88
2023/01/31 04:27:38;;;;;;;28.80;11.77;;;;;;;3.48;70.47;98504.94;5094576;28;20192;-88
2023/01/31 04:30:05;;;;;;;29.03;13.83;;;;;;;3.61;71.05;98501.03;5095465;28;20169;-87
2023/01/31 04:32:30;;;;;;;40.40;11.53;;;;;;;3.58;70.88;98501.13;5094747;28;20534;-88
2023/01/31 04:34:56;;;;;;;25.80;11.07;;;;;;;3.50;70.99;98492.75;5095349;28;20188;-87
2023/01/31 04:37:21;;;;;;;32.13;12.83;;;;;;;3.52;71.33;98491.81;5095594;28;20241;-87
2023/01/31 04:39:47;;;;;;;33.83;12.37;;;;;;;3.65;71.38;98498.25;5095871;28;20176;-88
2023/01/31 04:42:12;;;;;;;35.53;13.40;;;;;;;3.27;72.46;98500.47;5087366;28;20633;-87
2023/01/31 04:44:38;;;;;;;26.40;10.80;;;;;;;3.14;73.34;98494.00;5075027;28;20176;-89
2023/01/31 04:47:03;;;;;;;27.13;10.80;;;;;;;3.44;72.57;98499.00;5075005;28;20191;-88
2023/01/31 04:49:28;;;;;;;23.30;10.63;;;;;;;3.79;71.73;98504.69;5074922;28;20292;-88
2023/01/31 04:51:54;;;;;;;31.77;11.87;;;;;;;3.83;71.27;98501.94;5074857;28;20177;-88
2023/01/31 04:54:20;;;;;;;32.93;11.30;;;;;;;3.52;70.94;98503.91;5074751;28;20655;-88
2023/01/31 04:56:46;;;;;;;25.67;9.80;;;;;;;3.70;71.31;98509.31;5074749;28;20181;-88
2023/01/31 04:59:11;;;;;;;30.27;11.40;;;;;;;3.91;70.64;98505.09;5074703;28;20531;-88
2023/01/31 05:01:36;;;;;;;24.20;10.67;;;;;;;4.01;70.53;98510.81;5074691;28;20191;-88
2023/01/31 05:04:02;;;;;;;23.77;10.20;;;;;;;4.16;69.56;98508.50;5074884;28;20165;-88
2023/01/31 05:06:28;;;;;;;34.87;10.67;;;;;;;4.29;69.01;98519.28;5073560;28;20173;-88
2023/01/31 05:08:53;;;;;;;24.90;8.80;;;;;;;4.30;68.97;98519.19;5073789;28;20184;-88
2023/01/31 05:11:19;;;;;;;26.70;9.40;;;;;;;4.31;68.89;98512.28;5073461;28;20648;-89
2023/01/31 05:13:44;;;;;;;19.17;8.50;;;;;;;4.44;68.75;98520.44;5074869;28;20204;-88
2023/01/31 05:16:11;;;;;;;16.57;9.27;;;;;;;4.43;68.53;98521.34;5074414;28;20165;-88
2023/01/31 05:18:37;;;;;;;27.03;10.23;;;;;;;4.44;68.63;98516.09;5074327;28;20204;-88
2023/01/31 05:21:05;;;;;;;19.23;8.60;;;;;;;4.50;68.59;98528.00;5073716;28;20531;-88
2023/01/31 05:23:31;;;;;;;30.03;10.90;;;;;;;4.57;68.32;98530.28;5074508;28;20614;-87
2023/01/31 05:25:57;;;;;;;24.37;9.30;;;;;;;4.58;67.78;98533.75;5074086;28;20186;-88
2023/01/31 05:28:24;;;;;;;21.93;9.87;;;;;;;4.54;67.74;98532.16;5074386;28;20176;-87
2023/01/31 05:30:59;;;;;;;23.43;9.87;;;;;;;4.48;67.83;98538.41;5072191;28;20216;-87
2023/01/31 05:33:26;;;;;;;24.80;11.03;;;;;;;4.52;67.60;98550.38;5074285;28;20187;-87
2023/01/31 05:35:52;;;;;;;26.43;11.53;;;;;;;4.61;67.86;98554.41;5074024;28;20180;-87
2023/01/31 05:38:17;;;;;;;28.40;12.53;;;;;;;4.55;67.48;98557.22;5073898;28;20232;-87
2023/01/31 05:40:43;;;;;;;29.63;12.57;;;;;;;4.58;68.00;98563.13;5074463;28;20305;-87
2023/01/31 05:43:08;;;;;;;36.43;14.23;;;;;;;4.60;67.88;98563.94;5073848;28;20689;-87
2023/01/31 05:45:34;;;;;;;30.90;14.47;;;;;;;4.65;68.06;98567.19;5074152;28;20698;-88
2023/01/31 05:48:00;;;;;;;34.83;14.60;;;;;;;4.70;68.15;98561.81;5073652;28;20207;-87
2023/01/31 05:50:26;;;;;;;35.07;15.27;;;;;;;4.71;67.65;98566.97;5072967;28;20203;-87
2023/01/31 05:52:54;;;;;;;34.00;14.30;;;;;;;4.73;67.50;98566.91;5073594;28;20174;-88
2023/01/31 05:55:20;;;;;;;34.83;15.67;;;;;;;4.74;67.42;98563.41;5072881;28;20565;-88
2023/01/31 05:57:45;;;;;;;36.50;14.70;;;;;;;4.76;67.29;98565.03;5073571;28;20168;-87
2023/01/31 06:00:13;;;;;;;37.03;14.73;;;;;;;4.84;67.13;98575.97;5072532;28;20276;-88
2023/01/31 06:02:40;;;;;;;31.27;12.90;;;;;;;4.82;67.31;98571.75;5073712;28;20173;-87
2023/01/31 06:05:06;;;;;;;41.07;14.03;;;;;;;4.87;67.29;98580.19;5073394;28;20169;-87
2023/01/31 06:07:32;;;;;;;31.27;14.07;;;;;;;4.92;66.90;98588.66;5073654;28;20169;-89
2023/01/31 06:09:58;;;;;;;29.93;13.67;;;;;;;4.89;66.83;98587.03;5073395;28;20220;-88
2023/01/31 06:12:23;;;;;;;35.77;15.37;;;;;;;5.01;66.50;98587.44;5073250;28;20183;-88
2023/01/31 06:14:49;;;;;;;33.47;15.30;;;;;;;4.94;66.46;98589.44;5073156;28;20197;-87
2023/01/31 06:17:15;;;;;;;39.63;17.27;;;;;;;4.86;66.25;98586.28;5073306;28;20509;-87
2023/01/31 06:19:40;;;;;;;30.70;14.43;;;;;;;4.90;66.55;98593.91;5073418;28;20177;-88
2023/01/31 06:22:06;;;;;;;33.83;13.57;;;;;;;4.96;66.21;98598.00;5073143;28;20169;-89
2023/01/31 06:24:31;;;;;;;28.47;11.37;;;;;;;4.87;65.42;98595.78;5072118;28;20714;-88
2023/01/31 06:26:56;;;;;;;23.93;9.93;;;;;;;4.92;64.58;98593.84;5073442;28;20581;-88
2023/01/31 06:29:22;;;;;;;24.30;10.30;;;;;;;4.90;62.44;98593.91;5073342;28;20185;-87
2023/01/31 06:31:47;;;;;;;18.23;6.53;;;;;;;4.66;61.38;98588.81;5072137;28;20183;-88
2023/01/31 06:34:13;;;;;;;23.40;6.90;;;;;;;4.45;60.42;98589.59;5072583;28;20205;-87
2023/01/31 06:36:39;;;;;;;10.07;4.20;;;;;;;4.30;59.04;98589.25;5072781;28;20630;-88
2023/01/31 06:39:04;;;;;;;10.97;4.13;;;;;;;4.30;60.05;98591.84;5073320;28;20204;-87
2023/01/31 06:41:30;;;;;;;18.10;5.87;;;;;;;4.56;58.99;98593.47;5073010;28;20647;-88
2023/01/31 06:43:55;;;;;;;19.73;4.80;;;;;;;4.68;58.61;98594.78;5071918;28;20172;-88
2023/01/31 06:46:21;;;;;;;8.47;4.33;;;;;;;4.71;58.38;98592.06;5072829;28;20184;-89
2023/01/31 06:48:47;;;;;;;20.10;5.23;;;;;;;4.76;57.85;98603.13;5073350;28;20177;-88
2023/01/31 06:51:16;;;;;;;17.60;6.00;;;;;;;5.11;57.38;98620.78;5072788;28;20565;-89
2023/01/31 06:53:42;;;;;;;17.17;5.47;;;;;;;5.10;56.28;98621.72;5072560;28;20201;-88
2023/01/31 06:56:08;;;;;;;11.47;5.13;;;;;;;5.25;56.03;98625.44;5072730;28;20358;-88
2023/01/31 06:58:34;;;;;;;10.57;5.50;;;;;;;5.43;55.96;98622.13;5073234;28;20180;-89
2023/01/31 07:01:10;;;;;;;17.73;5.87;;;;;;;5.43;54.87;98625.56;5072275;28;20180;-89
2023/01/31 07:03:36;;;;;;;12.50;6.13;;;;;;;5.31;55.24;98626.06;5072921;28;20252;-88
2023/01/31 07:06:03;;;;;;;11.27;4.97;;;;;;;5.15;55.34;98630.16;5072703;28;20178;-89
2023/01/31 07:08:29;;;;;;;14.70;6.20;;;;;;;5.24;56.38;98634.97;5072676;28;20254;-89
2023/01/31 07:10:55;;;;;;;16.03;6.83;;;;;;;5.41;55.66;98639.53;5072527;28;20172;-88
2023/01/31 07:13:21;;;;;;;14.23;5.57;;;;;;;5.57;54.91;98649.25;5072561;28;20256;-88
2023/01/31 07:15:46;;;;;;;16.13;6.13;;;;;;;5.64;54.75;98641.19;5071550;28;20176;-89
2023/01/31 07:18:12;;;;;;;16.67;5.67;;;;;;;5.59;54.82;98637.03;5072730;28;20651;-89
2023/01/31 07:20:41;;;;;;;13.77;5.57;;;;;;;5.54;55.09;98635.53;5072557;28;20205;-89
2023/01/31 07:23:07;;;;;;;13.60;6.37;;;;;;;5.29;54.82;98648.63;5071466;28;20277;-88
2023/01/31 07:25:34;;;;;;;14.70;5.73;;;;;;;5.45;55.49;98654.09;5072455;28;20188;-88
2023/01/31 07:28:00;;;;;;;15.07;6.37;;;;;;;5.53;55.61;98646.81;5071406;28;20722;-88
2023/01/31 07:30:26;;;;;;;16.47;6.83;;;;;;;5.45;55.84;98652.34;5072554;28;20190;-89
2023/01/31 07:32:52;;;;;;;14.63;5.33;;;;;;;5.56;55.06;98652.75;5072722;28;20177;-88
2023/01/31 07:35:18;;;;;;;12.70;4.33;;;;;;;5.35;55.04;98664.00;5071530;28;20183;-88
2023/01/31 07:37:44;;;;;;;12.17;5.10;;;;;;;5.40;55.91;98661.22;5072459;28;20188;-89
2023/01/31 07:40:11;;;;;;;11.07;4.27;;;;;;;5.45;55.47;98662.72;5073161;28;20204;-89
2023/01/31 07:42:38;;;;;;;11.97;4.87;;;;;;;5.50;55.71;98660.78;5071544;28;20182;-89
2023/01/31 07:45:04;;;;;;;11.83;4.23;;;;;;;5.56;55.43;98652.75;5074027;28;20176;-90
2023/01/31 07:47:29;;;;;;;8.37;4.03;;;;;;;5.85;54.79;98651.59;5075653;28;20190;-88
2023/01/31 07:49:55;;;;;;;12.20;4.43;;;;;;;5.86;54.18;98655.06;5076285;28;20169;-87
2023/01/31 07:52:20;;;;;;;12.80;4.27;;;;;;;5.99;54.39;98653.63;5075977;28;20209;-88
2023/01/31 07:54:46;;;;;;;12.53;4.80;;;;;;;6.00;54.49;98653.56;5075836;28;20258;-89
2023/01/31 07:57:12;;;;;;;7.97;3.27;;;;;;;6.24;54.32;98649.06;5074937;28;20189;-89
2023/01/31 07:59:37;;;;;;;13.10;4.77;;;;;;;6.19;53.83;98664.03;5074934;28;20173;-89
2023/01/31 08:04:46;;;;;;;10.70;4.43;;;;;;;6.43;53.06;98657.78;5076166;28;20519;-89
2023/01/31 08:07:12;;;;;;;9.47;3.93;;;;;;;6.46;53.79;98639.44;5075154;28;20551;-89
2023/01/31 08:09:38;;;;;;;9.60;4.17;;;;;;;6.29;52.48;98659.31;5075609;28;20180;-88
2023/01/31 08:12:04;;;;;;;8.83;3.73;;;;;;;6.40;53.08;98651.84;5076151;28;20257;-88
2023/01/31 08:14:31;;;;;;;10.83;4.00;;;;;;;6.62;52.68;98647.41;5075765;28;20201;-88
2023/01/31 08:16:57;;;;;;;8.57;3.63;;;;;;;6.39;53.06;98647.59;5075677;28;20169;-89
2023/01/31 08:19:22;;;;;;;4.67;2.37;;;;;;;6.30;52.81;98654.03;5074640;28;20239;-86
2023/01/31 08:21:48;;;;;;;9.47;3.13;;;;;;;6.33;52.98;98646.09;5074617;28;20561;-87
2023/01/31 08:24:13;;;;;;;7.47;2.93;;;;;;;6.09;53.59;98644.53;5075746;28;20180;-87
2023/01/31 08:26:41;;;;;;;5.27;2.83;;;;;;;6.27;53.55;98642.88;5075466;28;20177;-87
2023/01/31 08:29:06;;;;;;;5.47;2.30;;;;;;;6.18;54.95;98667.56;5076019;28;20620;-88
2023/01/31 08:31:32;;;;;;;9.93;3.50;;;;;;;6.24;53.66;98662.09;5075418;28;20203;-87
2023/01/31 08:33:58;;;;;;;8.03;3.53;;;;;;;6.41;54.17;98659.63;5075350;28;20215;-87
2023/01/31 08:36:27;;;;;;;7.27;4.03;;;;;;;6.45;53.53;98662.91;5075370;28;20165;-87
2023/01/31 08:38:53;;;;;;;11.70;3.70;;;;;;;6.73;53.12;98660.81;5075221;28;20196;-88
2023/01/31 08:41:21;;;;;;;7.47;2.67;;;;;;;6.41;52.88;98683.03;5083649;28;20180;-87
2023/01/31 08:43:50;;;;;;;11.53;4.00;;;;;;;6.64;53.38;98669.03;5095338;28;20172;-88
2023/01/31 08:46:15;;;;;;;12.30;3.60;;;;;;;6.73;52.89;98672.06;5095154;28;20194;-87
2023/01/31 08:48:42;;;;;;;10.03;4.73;;;;;;;7.05;52.29;98673.22;5095211;28;20180;-88
2023/01/31 08:51:10;;;;;;;6.60;2.73;;;;;;;7.05;50.64;98661.97;5095296;28;20172;-86
2023/01/31 08:53:43;;;;;;;3.97;1.97;;;;;;;6.88;51.35;98675.75;5093950;28;20260;-87
2023/01/31 08:56:10;;;;;;;7.17;2.57;;;;;;;6.73;51.29;98672.06;5093208;28;20570;-87
2023/01/31 08:58:39;;;;;;;5.37;2.77;;;;;;;6.97;51.78;98672.72;5094925;28;20177;-88
2023/01/31 09:01:06;;;;;;;9.63;3.90;;;;;;;7.23;52.20;98667.16;5094855;28;20248;-89
2023/01/31 09:03:32;;;;;;;8.93;3.60;;;;;;;7.30;51.27;98668.56;5093842;28;20176;-88
2023/01/31 09:06:03;;;;;;;7.37;2.83;;;;;;;7.33;51.31;98667.56;5094064;28;20551;-88
2023/01/31 09:08:30;;;;;;;6.40;2.83;;;;;;;7.17;50.72;98671.81;5094107;28;20180;-88
2023/01/31 09:10:59;;;;;;;7.47;2.17;;;;;;;7.38;50.72;98673.41;5092953;28;20187;-87
2023/01/31 09:13:25;;;;;;;8.20;2.40;;;;;;;7.23;49.35;98676.75;5094638;28;20200;-87
2023/01/31 09:15:58;;;;;;;4.67;2.07;;;;;;;7.01;50.19;98668.22;5110702;28;20176;-88
2023/01/31 09:18:24;;;;;;;5.50;2.10;;;;;;;7.01;50.14;98670.81;5094636;28;20180;-88
2023/01/31 09:20:49;;;;;;;7.77;2.03;;;;;;;7.17;50.14;98671.81;5094804;28;20616;-87
2023/01/31 09:23:15;;;;;;;6.37;2.53;;;;;;;7.49;49.13;98665.94;5094584;28;20176;-87
2023/01/31 09:25:40;;;;;;;6.43;1.90;;;;;;;7.58;49.52;98668.09;5094764;28;20195;-87
2023/01/31 09:28:06;;;;;;;6.77;2.63;;;;;;;7.51;49.68;98658.88;5094432;28;20273;-88
2023/01/31 09:30:31;;;;;;;4.03;1.60;;;;;;;7.40;49.43;98655.94;5094638;28;20256;-87
2023/01/31 09:33:00;;;;;;;5.27;2.40;;;;;;;7.35;49.49;98655.31;5094848;28;20197;-87
2023/01/31 09:35:25;;;;;;;6.77;2.90;;;;;;;7.38;49.73;98653.41;5094583;28;20174;-87
2023/01/31 09:37:51;;;;;;;9.87;1.73;;;;;;;7.32;48.64;98650.22;5094356;28;20218;-88
2023/01/31 09:40:24;;;;;;;4.97;1.67;;;;;;;7.48;48.28;98648.59;5094494;28;20188;-87
2023/01/31 09:42:51;;;;;;;9.07;2.50;;;;;;;7.51;48.32;98658.88;5094488;28;20153;-88
2023/01/31 09:45:28;;;;;;;6.53;1.97;;;;;;;7.58;48.32;98655.06;5110137;28;20172;-86
2023/01/31 09:47:57;;;;;;;2.57;1.27;;;;;;;7.41;48.83;98647.22;5094430;28;20233;-88
2023/01/31 09:50:39;;;;;;;4.90;2.20;;;;;;;7.42;48.81;98635.84;5094547;28;20233;-87
2023/01/31 09:53:05;;;;;;;7.40;2.87;;;;;;;7.74;48.46;98640.34;5094186;28;20166;-88
2023/01/31 09:55:55;;;;;;;8.37;2.77;;;;;;;7.84;48.65;98636.38;5109942;28;20505;-87
2023/01/31 09:58:23;;;;;;;6.83;3.37;;;;;;;8.17;48.45;98622.56;5094408;28;20208;-88
2023/01/31 10:01:14;;;;;;;8.17;4.83;;;;;;;8.23;48.32;98624.88;5093770;28;20257;-87
2023/01/31 10:03:47;;;;;;;4.17;1.67;;;;;;;8.22;47.33;98617.94;5094318;28;20161;-87
2023/01/31 10:06:27;;;;;;;4.73;2.20;;;;;;;8.18;48.83;98621.63;5094245;28;20192;-87
2023/01/31 10:08:59;;;;;;;5.07;1.80;;;;;;;7.80;48.52;98627.03;5093811;28;20170;-86
2023/01/31 10:11:50;;;;;;;6.00;2.40;;;;;;;7.84;48.98;98620.72;5093612;28;20268;-87
2023/01/31 10:14:41;;;;;;;8.63;2.97;;;;;;;8.13;48.50;98618.41;5093787;28;20207;-87
2023/01/31 10:17:21;;;;;;;6.13;2.83;;;;;;;8.02;48.48;98614.56;5093885;28;20167;-87
2023/01/31 10:20:07;;;;;;;5.83;2.27;;;;;;;8.19;49.11;98618.09;5093792;28;20255;-87
2023/01/31 10:22:45;;;;;;;6.07;2.40;;;;;;;8.40;47.78;98610.03;5093771;28;20167;-87
2023/01/31 10:25:35;;;;;;;6.43;2.43;;;;;;;8.46;48.39;98619.31;5109403;28;20171;-86
2023/01/31 10:28:26;;;;;;;7.30;2.30;;;;;;;8.26;49.54;98609.88;5109421;28;20197;-88
2023/01/31 10:31:00;;;;;;;10.00;2.60;;;;;;;8.37;48.85;98610.19;5109350;28;20172;-87
2023/01/31 10:33:50;;;;;;;5.73;2.33;;;;;;;8.33;49.04;98608.66;5093249;28;20196;-87
2023/01/31 10:36:28;;;;;;;7.37;2.60;;;;;;;8.39;48.58;98600.50;5093226;28;20556;-86
2023/01/31 10:39:06;;;;;;;9.20;2.67;;;;;;;8.03;48.32;98613.66;5093139;28;20278;-87
2023/01/31 10:41:50;;;;;;;4.33;2.10;;;;;;;8.33;48.54;98600.81;5093710;28;20258;-87
2023/01/31 10:44:42;;;;;;;5.13;2.00;;;;;;;8.57;47.47;98606.53;5093431;28;20162;-88
2023/01/31 10:47:15;;;;;;;3.83;1.87;;;;;;;8.58;47.60;98603.84;5093716;28;20161;-86
2023/01/31 10:49:47;;;;;;;5.90;2.53;;;;;;;8.62;47.25;98594.91;5093422;28;20173;-86
2023/01/31 10:52:27;;;;;;;4.43;1.83;;;;;;;8.90;47.02;98590.81;5093065;28;20213;-87
2023/01/31 10:55:18;;;;;;;4.93;1.40;;;;;;;8.95;45.28;98589.66;5093263;28;20192;-88
2023/01/31 10:57:43;;;;;;;2.63;1.50;;;;;;;9.05;45.35;98590.81;5108967;28;20168;-87
2023/01/31 11:00:19;;;;;;;3.53;1.80;;;;;;;9.27;44.94;98591.34;5092230;28;20168;-87
2023/01/31 11:02:45;;;;;;;2.13;1.33;;;;;;;9.56;43.80;98591.47;5092924;28;20178;-87
2023/01/31 11:05:17;;;;;;;4.87;2.10;;;;;;;9.71;44.34;98580.94;5093155;28;20169;-87
2023/01/31 11:07:42;;;;;;;4.60;1.93;;;;;;;9.66;44.54;98587.38;5093162;28;20164;-87
2023/01/31 11:10:31;;;;;;;5.83;1.67;;;;;;;9.54;43.47;98582.88;5092866;28;20646;-87
2023/01/31 11:13:00;;;;;;;3.63;1.30;;;;;;;9.43;43.83;98587.84;5093325;28;20583;-87
2023/01/31 11:15:33;;;;;;;3.00;1.07;;;;;;;9.64;43.57;98579.59;5092788;28;20184;-88
2023/01/31 11:18:00;;;;;;;3.20;1.50;;;;;;;9.99;43.42;98574.94;5093126;28;20552;-87
2023/01/31 11:20:36;;;;;;;4.07;2.10;;;;;;;10.19;43.47;98576.41;5095105;28;20175;-88
2023/01/31 11:23:05;;;;;;;4.67;2.23;;;;;;;10.49;43.66;98569.31;5097212;28;20613;-87
2023/01/31 11:25:33;;;;;;;6.10;2.30;;;;;;;10.53;43.56;98569.97;5096860;28;20214;-87
2023/01/31 11:28:15;;;;;;;5.17;2.23;;;;;;;10.36;42.89;98566.59;5112844;28;20567;-88
2023/01/31 11:30:46;;;;;;;4.87;1.80;;;;;;;10.39;44.05;98578.66;5097319;28;20610;-87
2023/01/31 11:33:38;;;;;;;6.47;2.70;;;;;;;10.41;43.20;98566.31;5095673;28;20175;-89
2023/01/31 11:36:09;;;;;;;6.47;2.87;;;;;;;10.36;44.27;98569.22;5096921;28;20196;-88
2023/01/31 11:38:34;;;;;;;3.27;1.80;;;;;;;10.56;43.10;98569.78;5096547;28;20654;-88
2023/01/31 11:41:00;;;;;;;7.00;2.37;;;;;;;10.22;43.00;98565.75;5096660;28;20168;-90
2023/01/31 11:43:29;;;;;;;7.93;1.97;;;;;;;10.36;44.01;98561.38;5096684;28;20182;-90
2023/01/31 11:45:58;;;;;;;5.90;2.20;;;;;;;10.33;43.99;98569.41;5096832;28;20187;-90
2023/01/31 11:48:31;;;;;;;5.83;2.10;;;;;;;10.25;44.23;98578.66;5095483;28;20655;-89
2023/01/31 11:51:00;;;;;;;4.70;2.27;;;;;;;10.27;43.03;98580.25;5096720;28;20225;-90
2023/01/31 11:53:38;;;;;;;5.77;2.77;;;;;;;10.04;43.03;98567.66;5096367;28;20280;-89
2023/01/31 11:56:17;;;;;;;4.60;2.07;;;;;;;10.30;43.50;98563.50;5096562;28;20243;-89
2023/01/31 11:58:44;;;;;;;2.60;1.40;;;;;;;10.83;42.59;98557.56;5095303;28;20180;-91